sensor_id;sensor_type;location;lat;lon;timestamp;pressure;altitude;pressure_sealevel;temperature;humidity
47815;BME280;33579;50.058;18.130;2024-03-07T00:00:17;99756.53;;;4.52;100.00
47815;BME280;33579;50.058;18.130;2024-03-07T00:01:20;99762.59;;;4.53;100.00
47815;BME280;33579;50.058;18.130;2024-03-07T00:02:22;99752.31;;;4.49;100.00
47815;BME280;33579;50.058;18.130;2024-03-07T00:03:24;99766.22;;;4.50;100.00
47815;BME280;33579;50.058;18.130;2024-03-07T00:04:26;99761.22;;;4.45;100.00
47815;BME280;33579;50.058;18.130;2024-03-07T00:05:27;99756.78;;;4.47;100.00
47815;BME280;33579;50.058;18.130;2024-03-07T00:06:29;99760.25;;;4.48;100.00
47815;BME280;33579;50.058;18.130;2024-03-07T00:07:31;99758.47;;;4.48;100.00
47815;BME280;33579;50.058;18.130;2024-03-07T00:08:33;99760.31;;;4.46;100.00
47815;BME280;33579;50.058;18.130;2024-03-07T00:09:35;99765.63;;;4.45;100.00
47815;BME280;33579;50.058;18.130;2024-03-07T00:10:37;99757.13;;;4.41;100.00
47815;BME280;33579;50.058;18.130;2024-03-07T00:11:39;99762.16;;;4.44;100.00
47815;BME280;33579;50.058;18.130;2024-03-07T00:12:41;99764.00;;;4.42;100.00
47815;BME280;33579;50.058;18.130;2024-03-07T00:13:43;99759.03;;;4.38;100.00
47815;BME280;33579;50.058;18.130;2024-03-07T00:14:44;99765.16;;;4.36;100.00
47815;BME280;33579;50.058;18.130;2024-03-07T00:15:46;99762.56;;;4.36;100.00
47815;BME280;33579;50.058;18.130;2024-03-07T00:16:48;99761.56;;;4.39;100.00
47815;BME280;33579;50.058;18.130;2024-03-07T00:17:50;99760.53;;;4.42;100.00
47815;BME280;33579;50.058;18.130;2024-03-07T00:18:53;99763.09;;;4.43;100.00
47815;BME280;33579;50.058;18.130;2024-03-07T00:19:54;99764.94;;;4.41;100.00
47815;BME280;33579;50.058;18.130;2024-03-07T00:20:56;99767.66;;;4.38;100.00
47815;BME280;33579;50.058;18.130;2024-03-07T00:21:59;99764.25;;;4.38;100.00
47815;BME280;33579;50.058;18.130;2024-03-07T00:23:01;99765.84;;;4.40;100.00
47815;BME280;33579;50.058;18.130;2024-03-07T00:24:02;99762.56;;;4.36;100.00
47815;BME280;33579;50.058;18.130;2024-03-07T00:25:06;99764.41;;;4.34;100.00
47815;BME280;33579;50.058;18.130;2024-03-07T00:26:08;99763.66;;;4.32;100.00
47815;BME280;33579;50.058;18.130;2024-03-07T00:27:09;99762.03;;;4.30;100.00
47815;BME280;33579;50.058;18.130;2024-03-07T00:28:11;99758.75;;;4.26;100.00
47815;BME280;33579;50.058;18.130;2024-03-07T00:29:13;99760.66;;;4.22;100.00
47815;BME280;33579;50.058;18.130;2024-03-07T00:30:15;99758.91;;;4.23;100.00
47815;BME280;33579;50.058;18.130;2024-03-07T00:31:17;99760.59;;;4.24;100.00
47815;BME280;33579;50.058;18.130;2024-03-07T00:32:20;99758.97;;;4.21;100.00
47815;BME280;33579;50.058;18.130;2024-03-07T00:33:22;99758.06;;;4.22;100.00
47815;BME280;33579;50.058;18.130;2024-03-07T00:34:24;99751.09;;;4.23;100.00
47815;BME280;33579;50.058;18.130;2024-03-07T00:35:27;99750.19;;;4.24;100.00
47815;BME280;33579;50.058;18.130;2024-03-07T00:36:28;99751.34;;;4.18;100.00
47815;BME280;33579;50.058;18.130;2024-03-07T00:37:30;99754.75;;;4.19;100.00
47815;BME280;33579;50.058;18.130;2024-03-07T00:38:32;99756.47;;;4.20;100.00
47815;BME280;33579;50.058;18.130;2024-03-07T00:39:34;99747.81;;;4.19;100.00
47815;BME280;33579;50.058;18.130;2024-03-07T00:40:36;99749.72;;;4.16;100.00
47815;BME280;33579;50.058;18.130;2024-03-07T00:41:39;99756.59;;;4.17;100.00
47815;BME280;33579;50.058;18.130;2024-03-07T00:42:41;99752.41;;;4.14;100.00
47815;BME280;33579;50.058;18.130;2024-03-07T00:43:43;99746.41;;;4.12;100.00
47815;BME280;33579;50.058;18.130;2024-03-07T00:44:45;99746.69;;;4.07;100.00
47815;BME280;33579;50.058;18.130;2024-03-07T00:45:46;99747.56;;;4.06;100.00
47815;BME280;33579;50.058;18.130;2024-03-07T00:46:48;99743.91;;;4.11;100.00
47815;BME280;33579;50.058;18.130;2024-03-07T00:47:50;99741.53;;;4.06;100.00
47815;BME280;33579;50.058;18.130;2024-03-07T00:48:52;99752.78;;;4.06;100.00
47815;BME280;33579;50.058;18.130;2024-03-07T00:49:53;99743.22;;;4.07;100.00
47815;BME280;33579;50.058;18.130;2024-03-07T00:50:55;99746.00;;;4.04;100.00
47815;BME280;33579;50.058;18.130;2024-03-07T00:52:00;99749.41;;;4.04;100.00
47815;BME280;33579;50.058;18.130;2024-03-07T00:53:02;99736.41;;;4.04;100.00
47815;BME280;33579;50.058;18.130;2024-03-07T00:54:04;99746.75;;;4.06;100.00
47815;BME280;33579;50.058;18.130;2024-03-07T00:55:06;99743.22;;;4.07;100.00
47815;BME280;33579;50.058;18.130;2024-03-07T00:56:08;99741.47;;;4.07;100.00
47815;BME280;33579;50.058;18.130;2024-03-07T00:57:10;99744.84;;;4.10;100.00
47815;BME280;33579;50.058;18.130;2024-03-07T00:58:12;99744.59;;;4.14;100.00
47815;BME280;33579;50.058;18.130;2024-03-07T00:59:15;99737.63;;;4.15;100.00
47815;BME280;33579;50.058;18.130;2024-03-07T01:00:17;99748.28;;;4.10;100.00
47815;BME280;33579;50.058;18.130;2024-03-07T01:01:19;99743.97;;;4.09;100.00
47815;BME280;33579;50.058;18.130;2024-03-07T01:02:21;99745.66;;;4.10;100.00
47815;BME280;33579;50.058;18.130;2024-03-07T01:03:23;99745.66;;;4.10;100.00
47815;BME280;33579;50.058;18.130;2024-03-07T01:04:25;99742.25;;;4.10;100.00
47815;BME280;33579;50.058;18.130;2024-03-07T01:05:27;99743.28;;;4.05;100.00
47815;BME280;33579;50.058;18.130;2024-03-07T01:06:28;99752.78;;;4.06;100.00
47815;BME280;33579;50.058;18.130;2024-03-07T01:07:31;99745.91;;;4.05;100.00
47815;BME280;33579;50.058;18.130;2024-03-07T01:08:32;99743.22;;;4.07;100.00
47815;BME280;33579;50.058;18.130;2024-03-07T01:09:34;99747.44;;;4.10;100.00
47815;BME280;33579;50.058;18.130;2024-03-07T01:10:36;99745.75;;;4.08;100.00
47815;BME280;33579;50.058;18.130;2024-03-07T01:11:38;99743.28;;;4.05;100.00
47815;BME280;33579;50.058;18.130;2024-03-07T01:12:40;99734.66;;;4.05;100.00
47815;BME280;33579;50.058;18.130;2024-03-07T01:13:42;99740.78;;;4.04;100.00
47815;BME280;33579;50.058;18.130;2024-03-07T01:14:44;99738.25;;;4.02;100.00
47815;BME280;33579;50.058;18.130;2024-03-07T01:15:46;99745.13;;;4.03;100.00
47815;BME280;33579;50.058;18.130;2024-03-07T01:16:48;99743.63;;;3.99;100.00
47815;BME280;33579;50.058;18.130;2024-03-07T01:17:50;99744.44;;;4.00;100.00
47815;BME280;33579;50.058;18.130;2024-03-07T01:18:52;99746.06;;;4.02;100.00
47815;BME280;33579;50.058;18.130;2024-03-07T01:19:55;99744.38;;;4.01;100.00
47815;BME280;33579;50.058;18.130;2024-03-07T01:20:56;99746.22;;;3.99;100.00
47815;BME280;33579;50.058;18.130;2024-03-07T01:21:58;99740.09;;;4.00;100.00
47815;BME280;33579;50.058;18.130;2024-03-07T01:23:00;99740.16;;;3.99;100.00
47815;BME280;33579;50.058;18.130;2024-03-07T01:24:01;99737.31;;;4.03;100.00
47815;BME280;33579;50.058;18.130;2024-03-07T01:25:04;99739.88;;;4.05;100.00
47815;BME280;33579;50.058;18.130;2024-03-07T01:26:06;99736.34;;;4.06;100.00
47815;BME280;33579;50.058;18.130;2024-03-07T01:27:07;99735.34;;;4.08;100.00
47815;BME280;33579;50.058;18.130;2024-03-07T01:28:09;99730.38;;;4.04;100.00
47815;BME280;33579;50.058;18.130;2024-03-07T01:29:11;99726.75;;;4.06;100.00
47815;BME280;33579;50.058;18.130;2024-03-07T01:30:13;99731.19;;;4.04;100.00
47815;BME280;33579;50.058;18.130;2024-03-07T01:31:15;99736.41;;;4.04;100.00
47815;BME280;33579;50.058;18.130;2024-03-07T01:32:17;99736.41;;;4.04;100.00
47815;BME280;33579;50.058;18.130;2024-03-07T01:33:19;99738.19;;;4.04;100.00
47815;BME280;33579;50.058;18.130;2024-03-07T01:34:21;99738.94;;;4.06;100.00
47815;BME280;33579;50.058;18.130;2024-03-07T01:35:22;99737.03;;;4.10;100.00
47815;BME280;33579;50.058;18.130;2024-03-07T01:36:24;99738.78;;;4.09;100.00
47815;BME280;33579;50.058;18.130;2024-03-07T01:37:26;99736.88;;;4.13;100.00
47815;BME280;33579;50.058;18.130;2024-03-07T01:38:28;99736.78;;;4.14;100.00
47815;BME280;33579;50.058;18.130;2024-03-07T01:39:30;99733.28;;;4.15;100.00
47815;BME280;33579;50.058;18.130;2024-03-07T01:40:31;99735.19;;;4.12;100.00
47815;BME280;33579;50.058;18.130;2024-03-07T01:41:33;99737.78;;;4.12;100.00
47815;BME280;33579;50.058;18.130;2024-03-07T01:42:35;99737.78;;;4.12;100.00
47815;BME280;33579;50.058;18.130;2024-03-07T01:43:37;99736.19;;;4.09;100.00
47815;BME280;33579;50.058;18.130;2024-03-07T01:44:39;99740.63;;;4.07;100.00
47815;BME280;33579;50.058;18.130;2024-03-07T01:45:41;99738.88;;;4.07;100.00
47815;BME280;33579;50.058;18.130;2024-03-07T01:46:43;99734.66;;;4.05;100.00
47815;BME280;33579;50.058;18.130;2024-03-07T01:47:45;99738.94;;;4.06;100.00
47815;BME280;33579;50.058;18.130;2024-03-07T01:48:47;99738.88;;;4.07;100.00
47815;BME280;33579;50.058;18.130;2024-03-07T01:49:49;99740.69;;;4.05;100.00
47815;BME280;33579;50.058;18.130;2024-03-07T01:50:50;99740.69;;;4.05;100.00
47815;BME280;33579;50.058;18.130;2024-03-07T01:51:53;99739.00;;;4.04;100.00
47815;BME280;33579;50.058;18.130;2024-03-07T01:52:55;99744.31;;;4.03;100.00
47815;BME280;33579;50.058;18.130;2024-03-07T01:53:57;99739.75;;;4.06;100.00
47815;BME280;33579;50.058;18.130;2024-03-07T01:54:59;99743.38;;;4.04;100.00
47815;BME280;33579;50.058;18.130;2024-03-07T01:56:02;99739.88;;;4.05;100.00
47815;BME280;33579;50.058;18.130;2024-03-07T01:57:05;99746.91;;;4.03;100.00
47815;BME280;33579;50.058;18.130;2024-03-07T01:58:08;99742.53;;;4.03;100.00
47815;BME280;33579;50.058;18.130;2024-03-07T01:59:10;99739.34;;;3.98;100.00
47815;BME280;33579;50.058;18.130;2024-03-07T02:00:13;99735.72;;;4.01;100.00
47815;BME280;33579;50.058;18.130;2024-03-07T02:01:15;99736.72;;;3.98;100.00
47815;BME280;33579;50.058;18.130;2024-03-07T02:02:17;99739.25;;;4.00;100.00
47815;BME280;33579;50.058;18.130;2024-03-07T02:03:19;99741.84;;;4.00;100.00
47815;BME280;33579;50.058;18.130;2024-03-07T02:04:21;99742.00;;;3.97;100.00
47815;BME280;33579;50.058;18.130;2024-03-07T02:05:23;99735.72;;;4.01;100.00
47815;BME280;33579;50.058;18.130;2024-03-07T02:06:25;99738.47;;;3.98;100.00
47815;BME280;33579;50.058;18.130;2024-03-07T02:07:27;99741.09;;;3.98;100.00
47815;BME280;33579;50.058;18.130;2024-03-07T02:08:29;99739.63;;;3.92;100.00
47815;BME280;33579;50.058;18.130;2024-03-07T02:09:31;99743.00;;;3.94;100.00
47815;BME280;33579;50.058;18.130;2024-03-07T02:10:33;99739.63;;;3.92;100.00
47815;BME280;33579;50.058;18.130;2024-03-07T02:11:35;99737.88;;;3.92;100.00
47815;BME280;33579;50.058;18.130;2024-03-07T02:12:37;99738.81;;;3.91;100.00
47815;BME280;33579;50.058;18.130;2024-03-07T02:13:39;99736.22;;;3.91;100.00
47815;BME280;33579;50.058;18.130;2024-03-07T02:14:41;99744.78;;;3.93;100.00
47815;BME280;33579;50.058;18.130;2024-03-07T02:15:43;99732.69;;;3.92;100.00
47815;BME280;33579;50.058;18.130;2024-03-07T02:16:45;99733.50;;;3.93;100.00
47815;BME280;33579;50.058;18.130;2024-03-07T02:17:46;99730.78;;;3.96;100.00
47815;BME280;33579;50.058;18.130;2024-03-07T02:18:51;99734.13;;;3.98;100.00
47815;BME280;33579;50.058;18.130;2024-03-07T02:19:53;99734.03;;;4.00;100.00
47815;BME280;33579;50.058;18.130;2024-03-07T02:20:55;99733.97;;;4.01;100.00
47815;BME280;33579;50.058;18.130;2024-03-07T02:21:57;99731.28;;;4.03;100.00
47815;BME280;33579;50.058;18.130;2024-03-07T02:22:59;99735.88;;;3.98;100.00
47815;BME280;33579;50.058;18.130;2024-03-07T02:24:01;99735.97;;;3.96;100.00
47815;BME280;33579;50.058;18.130;2024-03-07T02:25:03;99739.34;;;3.98;100.00
47815;BME280;33579;50.058;18.130;2024-03-07T02:26:05;99741.19;;;3.96;100.00
47815;BME280;33579;50.058;18.130;2024-03-07T02:27:07;99729.06;;;3.95;100.00
47815;BME280;33579;50.058;18.130;2024-03-07T02:28:09;99740.38;;;3.94;100.00
47815;BME280;33579;50.058;18.130;2024-03-07T02:29:11;99734.34;;;3.93;100.00
47815;BME280;33579;50.058;18.130;2024-03-07T02:30:13;99731.81;;;3.92;100.00
47815;BME280;33579;50.058;18.130;2024-03-07T02:31:14;99732.75;;;3.91;100.00
47815;BME280;33579;50.058;18.130;2024-03-07T02:32:16;99733.44;;;3.94;100.00
47815;BME280;33579;50.058;18.130;2024-03-07T02:33:18;99731.13;;;3.88;100.00
47815;BME280;33579;50.058;18.130;2024-03-07T02:34:20;99731.97;;;3.89;100.00
47815;BME280;33579;50.058;18.130;2024-03-07T02:35:22;99738.94;;;3.88;100.00
47815;BME280;33579;50.058;18.130;2024-03-07T02:36:26;99728.69;;;3.85;100.00
47815;BME280;33579;50.058;18.130;2024-03-07T02:37:28;99732.91;;;3.88;100.00
47815;BME280;33579;50.058;18.130;2024-03-07T02:38:30;99729.53;;;3.86;100.00
47815;BME280;33579;50.058;18.130;2024-03-07T02:39:32;99737.34;;;3.86;100.00
47815;BME280;33579;50.058;18.130;2024-03-07T02:40:34;99736.28;;;3.90;100.00
47815;BME280;33579;50.058;18.130;2024-03-07T02:41:36;99731.13;;;3.88;100.00
47815;BME280;33579;50.058;18.130;2024-03-07T02:42:38;99734.81;;;3.84;100.00
47815;BME280;33579;50.058;18.130;2024-03-07T02:43:40;99731.28;;;3.85;100.00
47815;BME280;33579;50.058;18.130;2024-03-07T02:44:42;99732.84;;;3.89;100.00
47815;BME280;33579;50.058;18.130;2024-03-07T02:45:44;99731.91;;;3.90;100.00
47815;BME280;33579;50.058;18.130;2024-03-07T02:46:46;99730.06;;;3.92;100.00
47815;BME280;33579;50.058;18.130;2024-03-07T02:47:47;99731.06;;;3.90;100.00
47815;BME280;33579;50.058;18.130;2024-03-07T02:48:50;99735.44;;;3.89;100.00
47815;BME280;33579;50.058;18.130;2024-03-07T02:49:51;99737.19;;;3.89;100.00
47815;BME280;33579;50.058;18.130;2024-03-07T02:50:53;99737.94;;;3.91;100.00
47815;BME280;33579;50.058;18.130;2024-03-07T02:51:55;99738.88;;;3.90;100.00
47815;BME280;33579;50.058;18.130;2024-03-07T02:52:57;99733.84;;;3.87;100.00
47815;BME280;33579;50.058;18.130;2024-03-07T02:53:59;99732.91;;;3.88;100.00
47815;BME280;33579;50.058;18.130;2024-03-07T02:55:01;99738.94;;;3.88;100.00
47815;BME280;33579;50.058;18.130;2024-03-07T02:56:03;99734.59;;;3.89;100.00
47815;BME280;33579;50.058;18.130;2024-03-07T02:57:05;99728.78;;;3.84;100.00
47815;BME280;33579;50.058;18.130;2024-03-07T02:58:07;99727.88;;;3.85;100.00
47815;BME280;33579;50.058;18.130;2024-03-07T02:59:09;99725.25;;;3.85;100.00
47815;BME280;33579;50.058;18.130;2024-03-07T03:00:11;99732.97;;;3.86;100.00
47815;BME280;33579;50.058;18.130;2024-03-07T03:01:13;99726.94;;;3.86;100.00
47815;BME280;33579;50.058;18.130;2024-03-07T03:02:15;99727.00;;;3.84;100.00
47815;BME280;33579;50.058;18.130;2024-03-07T03:03:17;99737.59;;;3.81;100.00
47815;BME280;33579;50.058;18.130;2024-03-07T03:04:19;99728.84;;;3.82;100.00
47815;BME280;33579;50.058;18.130;2024-03-07T03:05:21;99734.06;;;3.82;100.00
47815;BME280;33579;50.058;18.130;2024-03-07T03:06:23;99737.41;;;3.84;100.00
47815;BME280;33579;50.058;18.130;2024-03-07T03:07:25;99727.88;;;3.85;100.00
47815;BME280;33579;50.058;18.130;2024-03-07T03:08:27;99732.38;;;3.81;100.00
47815;BME280;33579;50.058;18.130;2024-03-07T03:09:29;99733.53;;;3.75;100.00
47815;BME280;33579;50.058;18.130;2024-03-07T03:10:31;99734.28;;;3.77;100.00
47815;BME280;33579;50.058;18.130;2024-03-07T03:11:33;99731.69;;;3.77;100.00
47815;BME280;33579;50.058;18.130;2024-03-07T03:12:37;99731.84;;;3.74;100.00
47815;BME280;33579;50.058;18.130;2024-03-07T03:13:40;99726.53;;;3.76;100.00
47815;BME280;33579;50.058;18.130;2024-03-07T03:14:42;99733.38;;;3.78;100.00
47815;BME280;33579;50.058;18.130;2024-03-07T03:15:44;99742.09;;;3.77;100.00
47815;BME280;33579;50.058;18.130;2024-03-07T03:16:45;99736.94;;;3.76;100.00
47815;BME280;33579;50.058;18.130;2024-03-07T03:17:50;99738.66;;;3.77;100.00
47815;BME280;33579;50.058;18.130;2024-03-07T03:18:52;99737.75;;;3.78;100.00
47815;BME280;33579;50.058;18.130;2024-03-07T03:19:53;99743.72;;;3.80;100.00
47815;BME280;33579;50.058;18.130;2024-03-07T03:20:55;99734.97;;;3.81;100.00
47815;BME280;33579;50.058;18.130;2024-03-07T03:21:57;99739.44;;;3.79;100.00
47815;BME280;33579;50.058;18.130;2024-03-07T03:22:59;99741.00;;;3.82;100.00
47815;BME280;33579;50.058;18.130;2024-03-07T03:24:20;99741.41;;;3.74;100.00
47815;BME280;33579;50.058;18.130;2024-03-07T03:25:22;99739.03;;;3.69;100.00
47815;BME280;33579;50.058;18.130;2024-03-07T03:26:23;99740.56;;;3.73;100.00
47815;BME280;33579;50.058;18.130;2024-03-07T03:27:25;99743.78;;;3.78;100.00
47815;BME280;33579;50.058;18.130;2024-03-07T03:28:27;99742.94;;;3.78;100.00
47815;BME280;33579;50.058;18.130;2024-03-07T03:29:29;99746.31;;;3.80;100.00
47815;BME280;33579;50.058;18.130;2024-03-07T03:30:31;99741.09;;;3.80;100.00
47815;BME280;33579;50.058;18.130;2024-03-07T03:31:32;99746.09;;;3.85;100.00
47815;BME280;33579;50.058;18.130;2024-03-07T03:32:35;99746.84;;;3.87;100.00
47815;BME280;33579;50.058;18.130;2024-03-07T03:33:37;99735.69;;;3.85;100.00
47815;BME280;33579;50.058;18.130;2024-03-07T03:34:38;99737.47;;;3.83;100.00
47815;BME280;33579;50.058;18.130;2024-03-07T03:35:40;99736.72;;;3.80;100.00
47815;BME280;33579;50.058;18.130;2024-03-07T03:36:42;99741.00;;;3.82;100.00
47815;BME280;33579;50.058;18.130;2024-03-07T03:37:44;99739.44;;;3.79;100.00
47815;BME280;33579;50.058;18.130;2024-03-07T03:38:46;99740.25;;;3.79;100.00
47815;BME280;33579;50.058;18.130;2024-03-07T03:39:48;99736.81;;;3.79;100.00
47815;BME280;33579;50.058;18.130;2024-03-07T03:40:50;99737.75;;;3.78;100.00
47815;BME280;33579;50.058;18.130;2024-03-07T03:41:52;99741.16;;;3.78;100.00
47815;BME280;33579;50.058;18.130;2024-03-07T03:42:54;99737.88;;;3.75;100.00
47815;BME280;33579;50.058;18.130;2024-03-07T03:43:56;99741.09;;;3.80;100.00
47815;BME280;33579;50.058;18.130;2024-03-07T03:44:58;99738.41;;;3.82;100.00
47815;BME280;33579;50.058;18.130;2024-03-07T03:46:00;99728.91;;;3.80;100.00
47815;BME280;33579;50.058;18.130;2024-03-07T03:47:01;99732.22;;;3.84;100.00
47815;BME280;33579;50.058;18.130;2024-03-07T03:48:03;99738.56;;;3.78;100.00
47815;BME280;33579;50.058;18.130;2024-03-07T03:49:06;99736.88;;;3.77;100.00
47815;BME280;33579;50.058;18.130;2024-03-07T03:50:12;99738.56;;;3.78;100.00
47815;BME280;33579;50.058;18.130;2024-03-07T03:51:14;99736.88;;;3.77;100.00
47815;BME280;33579;50.058;18.130;2024-03-07T03:52:16;99738.66;;;3.77;100.00
47815;BME280;33579;50.058;18.130;2024-03-07T03:53:18;99736.81;;;3.79;100.00
47815;BME280;33579;50.058;18.130;2024-03-07T03:54:20;99734.34;;;3.76;100.00
47815;BME280;33579;50.058;18.130;2024-03-07T03:55:22;99736.19;;;3.74;100.00
47815;BME280;33579;50.058;18.130;2024-03-07T03:56:23;99734.22;;;3.79;100.00
47815;BME280;33579;50.058;18.130;2024-03-07T03:57:26;99734.44;;;3.74;100.00
47815;BME280;33579;50.058;18.130;2024-03-07T03:58:28;99740.63;;;3.72;100.00
47815;BME280;33579;50.058;18.130;2024-03-07T03:59:30;99737.22;;;3.71;100.00
47815;BME280;33579;50.058;18.130;2024-03-07T04:00:32;99735.44;;;3.72;100.00
47815;BME280;33579;50.058;18.130;2024-03-07T04:01:34;99742.41;;;3.71;100.00
47815;BME280;33579;50.058;18.130;2024-03-07T04:02:36;99741.50;;;3.72;100.00
47815;BME280;33579;50.058;18.130;2024-03-07T04:03:38;99731.84;;;3.74;100.00
47815;BME280;33579;50.058;18.130;2024-03-07T04:04:40;99736.28;;;3.72;100.00
47815;BME280;33579;50.058;18.130;2024-03-07T04:05:42;99740.56;;;3.73;100.00
47815;BME280;33579;50.058;18.130;2024-03-07T04:06:44;99739.72;;;3.73;100.00
47815;BME280;33579;50.058;18.130;2024-03-07T04:07:46;99736.19;;;3.74;100.00
47815;BME280;33579;50.058;18.130;2024-03-07T04:08:48;99740.88;;;3.67;100.00
47815;BME280;33579;50.058;18.130;2024-03-07T04:09:50;99741.03;;;3.64;100.00
47815;BME280;33579;50.058;18.130;2024-03-07T04:10:52;99741.72;;;3.68;100.00
47815;BME280;33579;50.058;18.130;2024-03-07T04:11:54;99738.19;;;3.69;100.00
47815;BME280;33579;50.058;18.130;2024-03-07T04:12:55;99740.09;;;3.65;100.00
47815;BME280;33579;50.058;18.130;2024-03-07T04:13:57;99741.94;;;3.63;100.00
47815;BME280;33579;50.058;18.130;2024-03-07T04:14:59;99738.59;;;3.61;100.00
47815;BME280;33579;50.058;18.130;2024-03-07T04:16:01;99734.53;;;3.55;100.00
47815;BME280;33579;50.058;18.130;2024-03-07T04:17:03;99738.88;;;3.55;100.00
47815;BME280;33579;50.058;18.130;2024-03-07T04:18:05;99737.94;;;3.56;100.00
47815;BME280;33579;50.058;18.130;2024-03-07T04:19:07;99736.97;;;3.58;100.00
47815;BME280;33579;50.058;18.130;2024-03-07T04:20:10;99731.69;;;3.60;100.00
47815;BME280;33579;50.058;18.130;2024-03-07T04:21:12;99737.66;;;3.62;100.00
47815;BME280;33579;50.058;18.130;2024-03-07T04:22:14;99736.09;;;3.58;100.00
47815;BME280;33579;50.058;18.130;2024-03-07T04:23:16;99740.31;;;3.60;100.00
47815;BME280;33579;50.058;18.130;2024-03-07T04:24:18;99740.25;;;3.62;100.00
47815;BME280;33579;50.058;18.130;2024-03-07T04:25:20;99734.97;;;3.63;100.00
47815;BME280;33579;50.058;18.130;2024-03-07T04:26:21;99739.34;;;3.63;100.00
47815;BME280;33579;50.058;18.130;2024-03-07T04:27:23;99741.94;;;3.63;100.00
47815;BME280;33579;50.058;18.130;2024-03-07T04:28:25;99737.72;;;3.60;100.00
47815;BME280;33579;50.058;18.130;2024-03-07T04:29:27;99739.28;;;3.64;100.00
47815;BME280;33579;50.058;18.130;2024-03-07T04:30:29;99734.19;;;3.61;100.00
47815;BME280;33579;50.058;18.130;2024-03-07T04:31:31;99747.16;;;3.63;100.00
47815;BME280;33579;50.058;18.130;2024-03-07T04:32:33;99736.91;;;3.60;100.00
47815;BME280;33579;50.058;18.130;2024-03-07T04:33:36;99737.03;;;3.57;100.00
47815;BME280;33579;50.058;18.130;2024-03-07T04:34:38;99732.69;;;3.57;100.00
47815;BME280;33579;50.058;18.130;2024-03-07T04:35:39;99737.03;;;3.57;100.00
47815;BME280;33579;50.058;18.130;2024-03-07T04:36:41;99735.28;;;3.57;100.00
47815;BME280;33579;50.058;18.130;2024-03-07T04:37:43;99740.53;;;3.56;100.00
47815;BME280;33579;50.058;18.130;2024-03-07T04:38:45;99747.44;;;3.57;100.00
47815;BME280;33579;50.058;18.130;2024-03-07T04:39:47;99742.22;;;3.57;100.00
47815;BME280;33579;50.058;18.130;2024-03-07T04:40:49;99745.00;;;3.54;100.00
47815;BME280;33579;50.058;18.130;2024-03-07T04:41:51;99744.22;;;3.51;100.00
47815;BME280;33579;50.058;18.130;2024-03-07T04:42:56;99745.00;;;3.54;100.00
47815;BME280;33579;50.058;18.130;2024-03-07T04:43:58;99745.75;;;3.56;100.00
47815;BME280;33579;50.058;18.130;2024-03-07T04:45:00;99746.59;;;3.56;100.00
47815;BME280;33579;50.058;18.130;2024-03-07T04:46:02;99741.47;;;3.55;100.00
47815;BME280;33579;50.058;18.130;2024-03-07T04:47:05;99750.34;;;3.50;100.00
47815;BME280;33579;50.058;18.130;2024-03-07T04:48:07;99745.97;;;3.51;100.00
47815;BME280;33579;50.058;18.130;2024-03-07T04:49:09;99746.06;;;3.49;100.00
47815;BME280;33579;50.058;18.130;2024-03-07T04:50:11;99749.44;;;3.51;100.00
47815;BME280;33579;50.058;18.130;2024-03-07T04:51:13;99750.34;;;3.50;100.00
47815;BME280;33579;50.058;18.130;2024-03-07T04:52:15;99753.22;;;3.44;100.00
47815;BME280;33579;50.058;18.130;2024-03-07T04:53:16;99750.56;;;3.46;100.00
47815;BME280;33579;50.058;18.130;2024-03-07T04:54:20;99753.00;;;3.49;100.00
47815;BME280;33579;50.058;18.130;2024-03-07T04:55:22;99754.63;;;3.51;100.00
47815;BME280;33579;50.058;18.130;2024-03-07T04:56:24;99754.69;;;3.50;100.00
47815;BME280;33579;50.058;18.130;2024-03-07T04:57:26;99754.63;;;3.51;100.00
47815;BME280;33579;50.058;18.130;2024-03-07T04:58:28;99746.06;;;3.49;100.00
47815;BME280;33579;50.058;18.130;2024-03-07T04:59:29;99755.50;;;3.52;100.00
47815;BME280;33579;50.058;18.130;2024-03-07T05:00:31;99751.28;;;3.49;100.00
47815;BME280;33579;50.058;18.130;2024-03-07T05:01:33;99755.56;;;3.50;100.00
47815;BME280;33579;50.058;18.130;2024-03-07T05:02:35;99757.22;;;3.51;100.00
47815;BME280;33579;50.058;18.130;2024-03-07T05:03:37;99754.03;;;3.46;100.00
47815;BME280;33579;50.058;18.130;2024-03-07T05:04:39;99758.16;;;3.50;100.00
47815;BME280;33579;50.058;18.130;2024-03-07T05:05:40;99750.72;;;3.43;100.00
47815;BME280;33579;50.058;18.130;2024-03-07T05:06:42;99766.56;;;3.38;100.00
47815;BME280;33579;50.058;18.130;2024-03-07T05:07:44;99762.19;;;3.38;100.00
47815;BME280;33579;50.058;18.130;2024-03-07T05:08:46;99762.13;;;3.40;100.00
47815;BME280;33579;50.058;18.130;2024-03-07T05:09:49;99764.72;;;3.40;100.00
47815;BME280;33579;50.058;18.130;2024-03-07T05:10:51;99771.75;;;3.38;100.00
47815;BME280;33579;50.058;18.130;2024-03-07T05:11:53;99768.38;;;3.36;100.00
47815;BME280;33579;50.058;18.130;2024-03-07T05:12:56;99769.38;;;3.33;100.00
47815;BME280;33579;50.058;18.130;2024-03-07T05:13:59;99766.84;;;3.32;100.00
47815;BME280;33579;50.058;18.130;2024-03-07T05:15:01;99768.06;;;3.25;100.00
47815;BME280;33579;50.058;18.130;2024-03-07T05:16:03;99766.22;;;3.27;100.00
47815;BME280;33579;50.058;18.130;2024-03-07T05:17:05;99769.53;;;3.30;100.00
47815;BME280;33579;50.058;18.130;2024-03-07T05:18:07;99773.25;;;3.25;100.00
47815;BME280;33579;50.058;18.130;2024-03-07T05:19:09;99769.66;;;3.27;100.00
47815;BME280;33579;50.058;18.130;2024-03-07T05:20:11;99772.34;;;3.26;100.00
47815;BME280;33579;50.058;18.130;2024-03-07T05:21:13;99776.47;;;3.30;100.00
47815;BME280;33579;50.058;18.130;2024-03-07T05:22:15;99775.00;;;3.24;100.00
47815;BME280;33579;50.058;18.130;2024-03-07T05:23:17;99771.84;;;3.17;100.00
47815;BME280;33579;50.058;18.130;2024-03-07T05:24:19;99782.88;;;3.22;100.00